St Agnes, United Kingdom
Current Conditions -  °F | °C
As of 8:50 PM on Wednesday 22 Oct 2014 (Local Time) from EGHQ Reporting Station
Rain Showers Rain Showers  
Wind Chill: 54°   Ceiling: 2500
Heat Index: 54°   Visibility: 6mi
Dew Point: 46°   Wind: 13mph
Humidity: 77%   Direction: 260°W
Pressure: 30.3"   Gusts: NA
Location:  50.31°N, 5.2°W
Report Text: EGHQ 221950Z 26011KT 9999 -SHRA BKN025 12/08 Q1026
Loading
Personal Weather Stations






























Interactive Weather Map
Tropical Storm Tracking
New forecast layout! Learn more

10-Day Weather Forecast

Advertisements
Track Severe Weather on mobile